West Leisenring, Pennsylvania
Current Conditions -  °F | °C
As of 5:53 PM on Monday 22 Dec 2014 (Local Time) from KMGW Reporting Station
Overcast Overcast  
Wind Chill: 35°   Ceiling: 3700
Heat Index: 40°   Visibility: 10mi
Dew Point: 32°   Wind: 7mph
Humidity: 73%   Direction: 100°E
Pressure: 29.98"   Gusts: NA
Location:  39.96°N, 79.7°W
Report Text: KMGW 222253Z 10006KT 10SM OVC037 04/00 A2998 RMK AO2 SLP161 T00440000
Loading
Personal Weather Stations






























Interactive Weather Map New forecast layout! Learn more

10-Day Weather Forecast

Advertisements
Track Severe Weather on mobile